SIA952 WSSS-WIII
Flight info
| Callsign | SIA952 |
|---|---|
| Flight time | 1h 24m |
| Altitude | 41000 |
| Route | ANITO8B ANITO B470 BUNIK |
| Aircraft | A359/H-SDE2E3GHIJ3J4J5LM1ORWXY/LB1D1 |
Departure
| Time | 2026-05-07 00:51 |
|---|---|
| Airport | Singapore Changi Airport (WSSS) |
Arrival
| Time | 2026-05-07 02:16 |
|---|---|
| Airport | Soekarno-Hatta International Airport (WIII) |
| Time | Latitude | Longitude | Altitude | Speed | Heading |
|---|---|---|---|---|---|
| 2026-05-06 23:49 | 1.35042 | 103.98821 | 31 ft | 0 kts | 292° |
| 2026-05-07 00:35 | 1.35036 | 103.98836 | 29 ft | 4 kts | 292° |
| 2026-05-07 00:36 | 1.35026 | 103.98859 | 28 ft | 2 kts | 292° |
| 2026-05-07 00:36 | 1.35019 | 103.98881 | 29 ft | 4 kts | 267° |
| 2026-05-07 00:36 | 1.35027 | 103.98904 | 27 ft | 4 kts | 218° |
| 2026-05-07 00:36 | 1.35044 | 103.98913 | 29 ft | 0 kts | 203° |
| 2026-05-07 00:42 | 1.35041 | 103.98912 | 31 ft | 2 kts | 203° |
| 2026-05-07 00:42 | 1.35014 | 103.98901 | 31 ft | 6 kts | 203° |
| 2026-05-07 00:42 | 1.34963 | 103.98884 | 31 ft | 9 kts | 185° |
| 2026-05-07 00:42 | 1.34914 | 103.98923 | 31 ft | 11 kts | 120° |
| 2026-05-07 00:43 | 1.34880 | 103.98998 | 31 ft | 13 kts | 114° |
| 2026-05-07 00:43 | 1.34846 | 103.99077 | 32 ft | 11 kts | 113° |
| 2026-05-07 00:43 | 1.34865 | 103.99139 | 32 ft | 10 kts | 29° |
| 2026-05-07 00:43 | 1.34942 | 103.99170 | 32 ft | 14 kts | 22° |
| 2026-05-07 00:44 | 1.35039 | 103.99211 | 32 ft | 17 kts | 23° |
| 2026-05-07 00:44 | 1.35156 | 103.99260 | 32 ft | 20 kts | 23° |
| 2026-05-07 00:44 | 1.35289 | 103.99316 | 32 ft | 22 kts | 22° |
| 2026-05-07 00:44 | 1.35434 | 103.99377 | 32 ft | 24 kts | 22° |
| 2026-05-07 00:45 | 1.35592 | 103.99443 | 32 ft | 25 kts | 22° |
| 2026-05-07 00:45 | 1.35763 | 103.99515 | 32 ft | 28 kts | 22° |
| 2026-05-07 00:45 | 1.35941 | 103.99589 | 32 ft | 22 kts | 22° |
| 2026-05-07 00:45 | 1.36062 | 103.99640 | 31 ft | 20 kts | 22° |
| 2026-05-07 00:46 | 1.36159 | 103.99680 | 31 ft | 15 kts | 23° |
| 2026-05-07 00:46 | 1.36220 | 103.99706 | 31 ft | 8 kts | 22° |
| 2026-05-07 00:46 | 1.36247 | 103.99742 | 32 ft | 6 kts | 101° |
| 2026-05-07 00:46 | 1.36241 | 103.99756 | 32 ft | 0 kts | 112° |
| 2026-05-07 00:49 | 1.36240 | 103.99758 | 32 ft | 3 kts | 112° |
| 2026-05-07 00:50 | 1.36219 | 103.99807 | 32 ft | 12 kts | 112° |
| 2026-05-07 00:50 | 1.36192 | 103.99874 | 33 ft | 6 kts | 114° |
| 2026-05-07 00:50 | 1.36161 | 103.99881 | 33 ft | 5 kts | 194° |
| 2026-05-07 00:50 | 1.36117 | 103.99862 | 32 ft | 9 kts | 203° |
| 2026-05-07 00:51 | 1.35980 | 103.99804 | 33 ft | 49 kts | 203° |
| 2026-05-07 00:51 | 1.35414 | 103.99564 | 37 ft | 125 kts | 202° |
| 2026-05-07 00:51 | 1.34410 | 103.99143 | 108 ft | 181 kts | 203° |
| 2026-05-07 00:51 | 1.33214 | 103.98648 | 769 ft | 190 kts | 201° |
| 2026-05-07 00:52 | 1.31918 | 103.98122 | 1165 ft | 205 kts | 201° |
| 2026-05-07 00:52 | 1.30687 | 103.97619 | 1369 ft | 178 kts | 202° |
| 2026-05-07 00:52 | 1.29483 | 103.97111 | 1656 ft | 197 kts | 202° |
| 2026-05-07 00:52 | 1.28195 | 103.96551 | 2023 ft | 205 kts | 203° |
| 2026-05-07 00:53 | 1.26886 | 103.95978 | 2381 ft | 206 kts | 202° |
| 2026-05-07 00:53 | 1.25578 | 103.95424 | 2667 ft | 207 kts | 202° |
| 2026-05-07 00:53 | 1.24242 | 103.94866 | 2967 ft | 208 kts | 201° |
| 2026-05-07 00:53 | 1.22826 | 103.94558 | 3251 ft | 210 kts | 181° |
| 2026-05-07 00:54 | 1.21384 | 103.94742 | 3546 ft | 209 kts | 167° |
| 2026-05-07 00:54 | 1.19966 | 103.95089 | 3816 ft | 211 kts | 166° |
| 2026-05-07 00:54 | 1.18544 | 103.95454 | 4061 ft | 212 kts | 166° |
| 2026-05-07 00:54 | 1.17113 | 103.95817 | 4305 ft | 213 kts | 166° |
| 2026-05-07 00:55 | 1.15672 | 103.96179 | 4508 ft | 215 kts | 166° |
| 2026-05-07 00:55 | 1.14216 | 103.96542 | 4751 ft | 216 kts | 166° |
| 2026-05-07 00:55 | 1.12759 | 103.96903 | 4997 ft | 216 kts | 166° |
| 2026-05-07 00:55 | 1.11313 | 103.97306 | 5229 ft | 217 kts | 160° |
| 2026-05-07 00:56 | 1.09982 | 103.98014 | 5463 ft | 217 kts | 146° |
| 2026-05-07 00:56 | 1.08766 | 103.98918 | 5710 ft | 219 kts | 143° |
| 2026-05-07 00:56 | 1.07562 | 103.99857 | 5948 ft | 220 kts | 143° |
| 2026-05-07 00:56 | 1.06355 | 104.00797 | 6007 ft | 220 kts | 143° |
| 2026-05-07 00:57 | 1.05144 | 104.01738 | 6006 ft | 221 kts | 143° |
| 2026-05-07 00:57 | 1.03932 | 104.02680 | 5999 ft | 220 kts | 142° |
| 2026-05-07 00:57 | 1.02858 | 104.03771 | 6002 ft | 222 kts | 126° |
| 2026-05-07 00:57 | 1.02120 | 104.05125 | 6007 ft | 222 kts | 115° |
| 2026-05-07 00:58 | 1.01514 | 104.06547 | 6022 ft | 223 kts | 114° |
| 2026-05-07 00:58 | 1.00921 | 104.07976 | 6016 ft | 223 kts | 114° |
| 2026-05-07 00:58 | 1.00325 | 104.09406 | 6019 ft | 223 kts | 114° |
| 2026-05-07 00:58 | 0.99731 | 104.10819 | 6018 ft | 223 kts | 114° |
| 2026-05-07 00:59 | 0.98530 | 104.13676 | 6119 ft | 225 kts | 114° |
| 2026-05-07 00:59 | 0.97918 | 104.15131 | 6686 ft | 228 kts | 114° |
| 2026-05-07 00:59 | 0.97306 | 104.16579 | 7619 ft | 224 kts | 114° |
| 2026-05-07 01:00 | 0.96702 | 104.18010 | 8576 ft | 223 kts | 113° |
| 2026-05-07 01:00 | 0.96095 | 104.19450 | 9482 ft | 226 kts | 113° |
| 2026-05-07 01:00 | 0.95483 | 104.20902 | 10316 ft | 228 kts | 112° |
| 2026-05-07 01:00 | 0.94844 | 104.22360 | 11105 ft | 231 kts | 116° |
| 2026-05-07 01:01 | 0.94050 | 104.23768 | 11907 ft | 234 kts | 120° |
| 2026-05-07 01:01 | 0.93186 | 104.25162 | 12718 ft | 237 kts | 120° |
| 2026-05-07 01:01 | 0.92305 | 104.26567 | 13553 ft | 240 kts | 120° |
| 2026-05-07 01:01 | 0.91415 | 104.27989 | 14290 ft | 243 kts | 120° |
| 2026-05-07 01:02 | 0.90511 | 104.29438 | 15021 ft | 247 kts | 120° |
| 2026-05-07 01:02 | 0.89595 | 104.30905 | 15755 ft | 251 kts | 120° |
| 2026-05-07 01:02 | 0.88669 | 104.32393 | 16496 ft | 254 kts | 120° |
| 2026-05-07 01:02 | 0.87727 | 104.33904 | 17227 ft | 258 kts | 120° |
| 2026-05-07 01:03 | 0.86774 | 104.35435 | 17964 ft | 261 kts | 120° |
| 2026-05-07 01:03 | 0.85807 | 104.36988 | 18616 ft | 265 kts | 120° |
| 2026-05-07 01:03 | 0.84829 | 104.38559 | 19257 ft | 267 kts | 120° |
| 2026-05-07 01:03 | 0.83843 | 104.40142 | 19911 ft | 270 kts | 120° |
| 2026-05-07 01:04 | 0.82849 | 104.41739 | 20567 ft | 272 kts | 120° |
| 2026-05-07 01:04 | 0.81843 | 104.43351 | 21220 ft | 275 kts | 120° |
| 2026-05-07 01:04 | 0.80750 | 104.44934 | 21863 ft | 278 kts | 124° |
| 2026-05-07 01:04 | 0.79610 | 104.46501 | 22493 ft | 280 kts | 124° |
| 2026-05-07 01:05 | 0.78462 | 104.48085 | 23111 ft | 283 kts | 124° |
| 2026-05-07 01:05 | 0.77309 | 104.49689 | 23664 ft | 286 kts | 124° |
| 2026-05-07 01:05 | 0.76148 | 104.51312 | 24143 ft | 288 kts | 123° |
| 2026-05-07 01:05 | 0.74979 | 104.52952 | 24621 ft | 291 kts | 123° |
| 2026-05-07 01:06 | 0.73790 | 104.54599 | 25085 ft | 294 kts | 126° |
| 2026-05-07 01:06 | 0.72406 | 104.56074 | 25560 ft | 297 kts | 138° |
| 2026-05-07 01:06 | 0.70664 | 104.57202 | 25995 ft | 302 kts | 153° |
| 2026-05-07 01:06 | 0.68678 | 104.57928 | 26433 ft | 306 kts | 161° |
| 2026-05-07 01:07 | 0.66624 | 104.58531 | 26869 ft | 309 kts | 161° |
| 2026-05-07 01:07 | 0.64555 | 104.59131 | 27301 ft | 311 kts | 161° |
| 2026-05-07 01:07 | 0.62470 | 104.59739 | 27730 ft | 313 kts | 161° |
| 2026-05-07 01:07 | 0.60373 | 104.60355 | 28172 ft | 315 kts | 161° |
| 2026-05-07 01:08 | 0.58262 | 104.60978 | 28602 ft | 317 kts | 161° |
| 2026-05-07 01:08 | 0.56138 | 104.61607 | 29017 ft | 320 kts | 161° |
| 2026-05-07 01:08 | 0.54003 | 104.62240 | 29488 ft | 319 kts | 161° |
| 2026-05-07 01:08 | 0.51875 | 104.62872 | 29964 ft | 319 kts | 161° |
| 2026-05-07 01:09 | 0.49754 | 104.63502 | 30352 ft | 318 kts | 161° |
| 2026-05-07 01:09 | 0.47628 | 104.64134 | 30703 ft | 318 kts | 161° |
| 2026-05-07 01:09 | 0.45509 | 104.64769 | 31058 ft | 318 kts | 161° |
| 2026-05-07 01:09 | 0.43387 | 104.65398 | 31404 ft | 318 kts | 161° |
| 2026-05-07 01:10 | 0.41260 | 104.66025 | 31732 ft | 318 kts | 162° |
| 2026-05-07 01:10 | 0.39141 | 104.66650 | 32057 ft | 318 kts | 162° |
| 2026-05-07 01:10 | 0.37024 | 104.67276 | 32370 ft | 317 kts | 162° |
| 2026-05-07 01:10 | 0.34906 | 104.67902 | 32661 ft | 317 kts | 162° |
| 2026-05-07 01:11 | 0.32793 | 104.68528 | 32956 ft | 317 kts | 162° |
| 2026-05-07 01:11 | 0.30678 | 104.69154 | 33236 ft | 317 kts | 162° |
| 2026-05-07 01:11 | 0.28568 | 104.69778 | 33498 ft | 317 kts | 162° |
| 2026-05-07 01:11 | 0.26451 | 104.70405 | 33757 ft | 316 kts | 162° |
| 2026-05-07 01:12 | 0.24342 | 104.71030 | 33991 ft | 316 kts | 162° |
| 2026-05-07 01:12 | 0.22231 | 104.71655 | 34203 ft | 316 kts | 162° |
| 2026-05-07 01:12 | 0.20126 | 104.72278 | 34426 ft | 315 kts | 162° |
| 2026-05-07 01:12 | 0.18027 | 104.72900 | 34621 ft | 315 kts | 162° |
| 2026-05-07 01:13 | 0.15953 | 104.73514 | 34787 ft | 315 kts | 162° |
| 2026-05-07 01:13 | 0.13848 | 104.74140 | 34940 ft | 316 kts | 162° |
| 2026-05-07 01:13 | 0.11736 | 104.74770 | 35088 ft | 317 kts | 162° |
| 2026-05-07 01:13 | 0.09617 | 104.75398 | 35233 ft | 318 kts | 162° |
| 2026-05-07 01:14 | 0.07486 | 104.76029 | 35384 ft | 319 kts | 162° |
| 2026-05-07 01:14 | 0.05353 | 104.76662 | 35532 ft | 320 kts | 162° |
| 2026-05-07 01:14 | 0.03211 | 104.77298 | 35677 ft | 321 kts | 162° |
| 2026-05-07 01:14 | 0.01062 | 104.77936 | 35819 ft | 323 kts | 162° |
| 2026-05-07 01:15 | -0.01095 | 104.78576 | 35935 ft | 325 kts | 162° |
| 2026-05-07 01:15 | -0.05480 | 104.79879 | 36079 ft | 333 kts | 162° |
| 2026-05-07 01:16 | -0.09971 | 104.81212 | 36239 ft | 341 kts | 162° |
| 2026-05-07 01:16 | -0.12257 | 104.81891 | 36342 ft | 345 kts | 162° |
| 2026-05-07 01:16 | -0.14570 | 104.82578 | 36460 ft | 349 kts | 162° |
| 2026-05-07 01:16 | -0.16912 | 104.83274 | 36564 ft | 353 kts | 162° |
| 2026-05-07 01:17 | -0.19254 | 104.83970 | 36665 ft | 357 kts | 162° |
| 2026-05-07 01:17 | -0.24078 | 104.85403 | 36850 ft | 366 kts | 162° |
| 2026-05-07 01:18 | -0.28889 | 104.87233 | 37045 ft | 374 kts | 151° |
| 2026-05-07 01:18 | -0.31144 | 104.88547 | 37166 ft | 378 kts | 147° |
| 2026-05-07 01:18 | -0.33357 | 104.89987 | 37268 ft | 382 kts | 145° |
| 2026-05-07 01:18 | -0.35574 | 104.91485 | 37389 ft | 387 kts | 144° |
| 2026-05-07 01:19 | -0.37809 | 104.93016 | 37493 ft | 391 kts | 144° |
| 2026-05-07 01:19 | -0.40063 | 104.94565 | 37603 ft | 396 kts | 144° |
| 2026-05-07 01:19 | -0.42348 | 104.96129 | 37731 ft | 400 kts | 145° |
| 2026-05-07 01:19 | -0.44663 | 104.97707 | 37832 ft | 405 kts | 145° |
| 2026-05-07 01:20 | -0.47010 | 104.99301 | 37935 ft | 410 kts | 145° |
| 2026-05-07 01:20 | -0.49380 | 105.00906 | 38063 ft | 414 kts | 145° |
| 2026-05-07 01:20 | -0.51783 | 105.02532 | 38185 ft | 419 kts | 145° |
| 2026-05-07 01:20 | -0.54211 | 105.04173 | 38295 ft | 423 kts | 145° |
| 2026-05-07 01:21 | -0.56664 | 105.05832 | 38423 ft | 428 kts | 145° |
| 2026-05-07 01:21 | -0.61613 | 105.09180 | 38642 ft | 436 kts | 145° |
| 2026-05-07 01:21 | -0.64137 | 105.10887 | 38746 ft | 441 kts | 145° |
| 2026-05-07 01:22 | -0.66687 | 105.12612 | 38846 ft | 445 kts | 145° |
| 2026-05-07 01:22 | -0.69271 | 105.14361 | 38956 ft | 449 kts | 145° |
| 2026-05-07 01:22 | -0.71027 | 105.15549 | 39028 ft | 452 kts | 145° |
| 2026-05-07 01:22 | -0.73608 | 105.17296 | 39136 ft | 456 kts | 145° |
| 2026-05-07 01:23 | -0.76244 | 105.19080 | 39266 ft | 460 kts | 145° |
| 2026-05-07 01:23 | -0.78905 | 105.20880 | 39385 ft | 463 kts | 145° |
| 2026-05-07 01:23 | -0.81581 | 105.22691 | 39501 ft | 467 kts | 145° |
| 2026-05-07 01:24 | -0.87007 | 105.26363 | 39685 ft | 474 kts | 145° |
| 2026-05-07 01:24 | -0.89756 | 105.28223 | 39791 ft | 478 kts | 145° |
| 2026-05-07 01:24 | -0.92514 | 105.30089 | 39926 ft | 480 kts | 145° |
| 2026-05-07 01:24 | -0.95278 | 105.31960 | 40149 ft | 480 kts | 145° |
| 2026-05-07 01:25 | -0.98042 | 105.33830 | 40356 ft | 480 kts | 145° |
| 2026-05-07 01:25 | -1.00815 | 105.35706 | 40568 ft | 480 kts | 145° |
| 2026-05-07 01:25 | -1.03583 | 105.37580 | 40796 ft | 480 kts | 145° |
| 2026-05-07 01:26 | -1.09084 | 105.41303 | 40885 ft | 480 kts | 145° |
| 2026-05-07 01:26 | -1.14608 | 105.45042 | 40886 ft | 480 kts | 145° |
| 2026-05-07 01:27 | -1.20146 | 105.48791 | 40886 ft | 480 kts | 145° |
| 2026-05-07 01:27 | -1.25682 | 105.52539 | 40888 ft | 480 kts | 145° |
| 2026-05-07 01:28 | -1.31225 | 105.56292 | 40887 ft | 481 kts | 145° |
| 2026-05-07 01:28 | -1.36768 | 105.60044 | 40890 ft | 481 kts | 145° |
| 2026-05-07 01:29 | -1.42309 | 105.63795 | 40890 ft | 481 kts | 145° |
| 2026-05-07 01:29 | -1.47847 | 105.67545 | 40889 ft | 480 kts | 145° |
| 2026-05-07 01:30 | -1.53392 | 105.71300 | 40891 ft | 482 kts | 145° |
| 2026-05-07 01:30 | -1.58957 | 105.75069 | 40892 ft | 483 kts | 145° |
| 2026-05-07 01:31 | -1.64523 | 105.78838 | 40894 ft | 483 kts | 145° |
| 2026-05-07 01:31 | -1.70060 | 105.82589 | 40894 ft | 483 kts | 145° |
| 2026-05-07 01:32 | -1.75627 | 105.86359 | 40893 ft | 483 kts | 145° |
| 2026-05-07 01:32 | -1.81195 | 105.90131 | 40894 ft | 483 kts | 145° |
| 2026-05-07 01:33 | -1.86761 | 105.93902 | 40896 ft | 484 kts | 145° |
| 2026-05-07 01:33 | -1.92336 | 105.97679 | 40896 ft | 484 kts | 145° |
| 2026-05-07 01:34 | -1.97917 | 106.01459 | 40893 ft | 484 kts | 145° |
| 2026-05-07 01:34 | -2.03484 | 106.05231 | 40893 ft | 483 kts | 145° |
| 2026-05-07 01:35 | -2.09011 | 106.08977 | 40892 ft | 483 kts | 145° |
| 2026-05-07 01:35 | -2.14658 | 106.12621 | 40894 ft | 484 kts | 152° |
| 2026-05-07 01:36 | -2.20982 | 106.14890 | 40900 ft | 485 kts | 167° |
| 2026-05-07 01:36 | -2.27623 | 106.16157 | 40899 ft | 486 kts | 169° |
| 2026-05-07 01:37 | -2.33797 | 106.17178 | 40899 ft | 486 kts | 170° |
| 2026-05-07 01:37 | -2.40478 | 106.18280 | 40900 ft | 486 kts | 169° |
| 2026-05-07 01:38 | -2.47142 | 106.19407 | 40902 ft | 486 kts | 169° |
| 2026-05-07 01:38 | -2.53815 | 106.20548 | 40896 ft | 486 kts | 169° |
| 2026-05-07 01:39 | -2.60488 | 106.21692 | 40896 ft | 487 kts | 169° |
| 2026-05-07 01:39 | -2.67178 | 106.22837 | 40895 ft | 488 kts | 169° |
| 2026-05-07 01:40 | -2.73837 | 106.23977 | 40898 ft | 488 kts | 169° |
| 2026-05-07 01:40 | -2.80535 | 106.25124 | 40893 ft | 488 kts | 169° |
| 2026-05-07 01:41 | -2.87240 | 106.26271 | 40888 ft | 488 kts | 169° |
| 2026-05-07 01:41 | -2.93942 | 106.27419 | 40893 ft | 488 kts | 170° |
| 2026-05-07 01:42 | -3.00640 | 106.28566 | 40889 ft | 489 kts | 170° |
| 2026-05-07 01:42 | -3.07345 | 106.29714 | 40886 ft | 488 kts | 170° |
| 2026-05-07 01:43 | -3.14045 | 106.30862 | 40892 ft | 488 kts | 170° |
| 2026-05-07 01:43 | -3.20755 | 106.32011 | 40888 ft | 488 kts | 170° |
| 2026-05-07 01:44 | -3.27453 | 106.33158 | 40897 ft | 488 kts | 170° |
| 2026-05-07 01:44 | -3.34153 | 106.34306 | 40895 ft | 489 kts | 170° |
| 2026-05-07 01:45 | -3.40855 | 106.35455 | 40894 ft | 489 kts | 170° |
| 2026-05-07 01:45 | -3.47562 | 106.36604 | 40895 ft | 489 kts | 169° |
| 2026-05-07 01:46 | -3.54228 | 106.37747 | 40900 ft | 489 kts | 170° |
| 2026-05-07 01:46 | -3.60937 | 106.38898 | 40900 ft | 489 kts | 169° |
| 2026-05-07 01:47 | -3.67637 | 106.40105 | 40899 ft | 488 kts | 169° |
| 2026-05-07 01:47 | -3.74319 | 106.41368 | 40894 ft | 488 kts | 169° |
| 2026-05-07 01:48 | -3.80993 | 106.42622 | 40847 ft | 488 kts | 169° |
| 2026-05-07 01:48 | -3.84329 | 106.43247 | 40609 ft | 488 kts | 169° |
| 2026-05-07 01:48 | -3.87668 | 106.43873 | 40366 ft | 488 kts | 169° |
| 2026-05-07 01:48 | -3.91019 | 106.44500 | 40132 ft | 489 kts | 169° |
| 2026-05-07 01:49 | -3.94325 | 106.45119 | 39891 ft | 490 kts | 169° |
| 2026-05-07 01:49 | -3.97672 | 106.45746 | 39656 ft | 490 kts | 169° |
| 2026-05-07 01:49 | -4.01022 | 106.46373 | 39309 ft | 487 kts | 169° |
| 2026-05-07 01:49 | -4.04349 | 106.46996 | 38753 ft | 486 kts | 169° |
| 2026-05-07 01:50 | -4.07678 | 106.47619 | 38032 ft | 487 kts | 169° |
| 2026-05-07 01:50 | -4.11014 | 106.48244 | 37331 ft | 487 kts | 169° |
| 2026-05-07 01:50 | -4.14345 | 106.48868 | 36642 ft | 487 kts | 169° |
| 2026-05-07 01:50 | -4.17677 | 106.49492 | 35930 ft | 488 kts | 169° |
| 2026-05-07 01:51 | -4.21024 | 106.50118 | 35197 ft | 489 kts | 169° |
| 2026-05-07 01:51 | -4.24372 | 106.50745 | 34433 ft | 491 kts | 169° |
| 2026-05-07 01:51 | -4.27746 | 106.51377 | 33538 ft | 495 kts | 168° |
| 2026-05-07 01:51 | -4.31137 | 106.52012 | 32611 ft | 497 kts | 168° |
| 2026-05-07 01:52 | -4.34555 | 106.52653 | 31696 ft | 499 kts | 168° |
| 2026-05-07 01:52 | -4.37978 | 106.53294 | 30755 ft | 502 kts | 168° |
| 2026-05-07 01:52 | -4.41403 | 106.53936 | 30086 ft | 499 kts | 168° |
| 2026-05-07 01:52 | -4.44798 | 106.54572 | 29401 ft | 494 kts | 168° |
| 2026-05-07 01:53 | -4.48170 | 106.55204 | 28726 ft | 489 kts | 168° |
| 2026-05-07 01:53 | -4.51492 | 106.55826 | 28086 ft | 483 kts | 168° |
| 2026-05-07 01:53 | -4.54782 | 106.56443 | 27452 ft | 478 kts | 168° |
| 2026-05-07 01:53 | -4.58043 | 106.57054 | 26826 ft | 474 kts | 168° |
| 2026-05-07 01:54 | -4.61269 | 106.57659 | 26197 ft | 469 kts | 168° |
| 2026-05-07 01:54 | -4.64462 | 106.58258 | 25584 ft | 465 kts | 168° |
| 2026-05-07 01:54 | -4.67590 | 106.58845 | 24965 ft | 461 kts | 168° |
| 2026-05-07 01:54 | -4.70717 | 106.59431 | 24572 ft | 452 kts | 168° |
| 2026-05-07 01:55 | -4.73729 | 106.59994 | 24441 ft | 427 kts | 167° |
| 2026-05-07 01:55 | -4.76565 | 106.60524 | 24294 ft | 403 kts | 167° |
| 2026-05-07 01:55 | -4.79254 | 106.61028 | 24126 ft | 386 kts | 167° |
| 2026-05-07 01:55 | -4.81857 | 106.61517 | 23957 ft | 376 kts | 167° |
| 2026-05-07 01:56 | -4.84411 | 106.62000 | 23564 ft | 373 kts | 167° |
| 2026-05-07 01:56 | -4.86907 | 106.62697 | 22964 ft | 373 kts | 156° |
| 2026-05-07 01:56 | -4.89284 | 106.63721 | 22440 ft | 371 kts | 154° |
| 2026-05-07 01:56 | -4.91625 | 106.64798 | 21993 ft | 369 kts | 153° |
| 2026-05-07 01:57 | -4.93950 | 106.65870 | 21536 ft | 366 kts | 153° |
| 2026-05-07 01:57 | -4.96264 | 106.66933 | 21089 ft | 364 kts | 153° |
| 2026-05-07 01:57 | -4.98562 | 106.67987 | 20652 ft | 363 kts | 153° |
| 2026-05-07 01:57 | -5.00856 | 106.69037 | 20196 ft | 361 kts | 153° |
| 2026-05-07 01:58 | -5.03134 | 106.70079 | 19760 ft | 360 kts | 153° |
| 2026-05-07 01:58 | -5.05409 | 106.71120 | 19320 ft | 358 kts | 154° |
| 2026-05-07 01:58 | -5.07676 | 106.72156 | 18880 ft | 357 kts | 153° |
| 2026-05-07 01:58 | -5.09937 | 106.73190 | 18438 ft | 356 kts | 153° |
| 2026-05-07 01:59 | -5.12185 | 106.74217 | 17951 ft | 354 kts | 153° |
| 2026-05-07 01:59 | -5.14416 | 106.75237 | 17497 ft | 351 kts | 153° |
| 2026-05-07 01:59 | -5.16631 | 106.76250 | 17089 ft | 348 kts | 153° |
| 2026-05-07 01:59 | -5.18834 | 106.77258 | 16787 ft | 349 kts | 153° |
| 2026-05-07 02:00 | -5.21048 | 106.78261 | 16298 ft | 348 kts | 154° |
| 2026-05-07 02:00 | -5.23226 | 106.79244 | 16042 ft | 338 kts | 154° |
| 2026-05-07 02:00 | -5.25338 | 106.80197 | 15837 ft | 326 kts | 153° |
| 2026-05-07 02:00 | -5.27354 | 106.81107 | 15361 ft | 312 kts | 153° |
| 2026-05-07 02:01 | -5.29314 | 106.81994 | 14800 ft | 303 kts | 153° |
| 2026-05-07 02:01 | -5.31198 | 106.82848 | 14523 ft | 300 kts | 153° |
| 2026-05-07 02:01 | -5.33095 | 106.83709 | 14162 ft | 298 kts | 153° |
| 2026-05-07 02:01 | -5.34983 | 106.84565 | 13781 ft | 294 kts | 153° |
| 2026-05-07 02:02 | -5.36807 | 106.85390 | 13413 ft | 279 kts | 153° |
| 2026-05-07 02:02 | -5.38559 | 106.86183 | 13075 ft | 275 kts | 153° |
| 2026-05-07 02:02 | -5.40291 | 106.86969 | 12753 ft | 271 kts | 153° |
| 2026-05-07 02:02 | -5.41997 | 106.87742 | 12452 ft | 267 kts | 153° |
| 2026-05-07 02:03 | -5.43684 | 106.88508 | 12113 ft | 265 kts | 153° |
| 2026-05-07 02:03 | -5.45359 | 106.89268 | 11774 ft | 263 kts | 153° |
| 2026-05-07 02:03 | -5.47057 | 106.89945 | 11433 ft | 264 kts | 161° |
| 2026-05-07 02:03 | -5.48994 | 106.90182 | 11120 ft | 293 kts | 176° |
| 2026-05-07 02:04 | -5.51032 | 106.90166 | 10793 ft | 292 kts | 179° |
| 2026-05-07 02:04 | -5.53059 | 106.90117 | 10422 ft | 291 kts | 178° |
| 2026-05-07 02:04 | -5.55080 | 106.90072 | 10006 ft | 290 kts | 178° |
| 2026-05-07 02:04 | -5.57099 | 106.90034 | 9581 ft | 290 kts | 178° |
| 2026-05-07 02:05 | -5.59111 | 106.89999 | 9129 ft | 288 kts | 178° |
| 2026-05-07 02:05 | -5.61115 | 106.89967 | 8695 ft | 287 kts | 178° |
| 2026-05-07 02:05 | -5.63105 | 106.89936 | 8302 ft | 284 kts | 178° |
| 2026-05-07 02:05 | -5.65050 | 106.89907 | 7924 ft | 282 kts | 178° |
| 2026-05-07 02:06 | -5.67003 | 106.89877 | 7540 ft | 279 kts | 178° |
| 2026-05-07 02:06 | -5.68934 | 106.89849 | 7252 ft | 276 kts | 178° |
| 2026-05-07 02:06 | -5.70853 | 106.89820 | 7054 ft | 275 kts | 177° |
| 2026-05-07 02:06 | -5.72769 | 106.89795 | 7006 ft | 275 kts | 177° |
| 2026-05-07 02:07 | -5.74684 | 106.89760 | 6769 ft | 275 kts | 178° |
| 2026-05-07 02:07 | -5.77848 | 106.89686 | 6160 ft | 272 kts | 178° |
| 2026-05-07 02:07 | -5.79731 | 106.89643 | 5764 ft | 270 kts | 178° |
| 2026-05-07 02:08 | -5.81608 | 106.89602 | 5381 ft | 268 kts | 179° |
| 2026-05-07 02:08 | -5.83467 | 106.89562 | 4993 ft | 267 kts | 179° |
| 2026-05-07 02:08 | -5.85320 | 106.89523 | 4613 ft | 265 kts | 179° |
| 2026-05-07 02:08 | -5.87140 | 106.89483 | 4208 ft | 255 kts | 178° |
| 2026-05-07 02:09 | -5.88872 | 106.89444 | 3812 ft | 243 kts | 178° |
| 2026-05-07 02:09 | -5.90527 | 106.89408 | 3417 ft | 233 kts | 178° |
| 2026-05-07 02:09 | -5.92118 | 106.89374 | 3089 ft | 222 kts | 178° |
| 2026-05-07 02:09 | -5.93604 | 106.89341 | 3019 ft | 206 kts | 178° |
| 2026-05-07 02:10 | -5.95021 | 106.89305 | 3015 ft | 203 kts | 178° |
| 2026-05-07 02:10 | -5.96398 | 106.88959 | 2815 ft | 209 kts | 205° |
| 2026-05-07 02:10 | -5.97572 | 106.88096 | 2656 ft | 210 kts | 218° |
| 2026-05-07 02:10 | -5.98655 | 106.87143 | 2471 ft | 210 kts | 218° |
| 2026-05-07 02:11 | -5.99761 | 106.86159 | 2306 ft | 209 kts | 219° |
| 2026-05-07 02:11 | -6.00837 | 106.85210 | 2141 ft | 208 kts | 218° |
| 2026-05-07 02:11 | -6.01924 | 106.84261 | 2018 ft | 206 kts | 218° |
| 2026-05-07 02:11 | -6.03007 | 106.83319 | 1997 ft | 207 kts | 218° |
| 2026-05-07 02:12 | -6.04048 | 106.82325 | 1988 ft | 208 kts | 227° |
| 2026-05-07 02:12 | -6.04774 | 106.81097 | 1993 ft | 202 kts | 245° |
| 2026-05-07 02:12 | -6.05263 | 106.79843 | 1991 ft | 184 kts | 246° |
| 2026-05-07 02:12 | -6.05727 | 106.78663 | 1992 ft | 180 kts | 247° |
| 2026-05-07 02:13 | -6.06192 | 106.77498 | 1995 ft | 180 kts | 246° |
| 2026-05-07 02:13 | -6.06664 | 106.76331 | 1896 ft | 179 kts | 245° |
| 2026-05-07 02:13 | -6.07128 | 106.75177 | 1675 ft | 177 kts | 246° |
| 2026-05-07 02:13 | -6.07573 | 106.74053 | 1439 ft | 169 kts | 246° |
| 2026-05-07 02:14 | -6.08000 | 106.72974 | 1211 ft | 163 kts | 246° |
| 2026-05-07 02:14 | -6.08417 | 106.71927 | 1006 ft | 159 kts | 247° |
| 2026-05-07 02:14 | -6.08817 | 106.70917 | 822 ft | 152 kts | 245° |
| 2026-05-07 02:14 | -6.09202 | 106.69952 | 648 ft | 145 kts | 248° |
| 2026-05-07 02:15 | -6.09575 | 106.69021 | 465 ft | 142 kts | 247° |
| 2026-05-07 02:15 | -6.09942 | 106.68093 | 274 ft | 143 kts | 246° |
| 2026-05-07 02:15 | -6.10298 | 106.67172 | 124 ft | 143 kts | 246° |
| 2026-05-07 02:15 | -6.10673 | 106.66257 | 38 ft | 134 kts | 248° |
| 2026-05-07 02:16 | -6.10957 | 106.65543 | 43 ft | 86 kts | 248° |
| 2026-05-07 02:16 | -6.11119 | 106.65143 | 42 ft | 37 kts | 248° |
| 2026-05-07 02:16 | -6.11208 | 106.64921 | 45 ft | 27 kts | 245° |
| 2026-05-07 02:16 | -6.11325 | 106.64780 | 45 ft | 21 kts | 219° |
| 2026-05-07 02:17 | -6.11411 | 106.64721 | 44 ft | 11 kts | 203° |
| 2026-05-07 02:17 | -6.11494 | 106.64722 | 43 ft | 14 kts | 159° |
| 2026-05-07 02:17 | -6.11548 | 106.64758 | 43 ft | 9 kts | 111° |
| 2026-05-07 02:17 | -6.11534 | 106.64825 | 43 ft | 12 kts | 68° |
| 2026-05-07 02:18 | -6.11499 | 106.64911 | 43 ft | 15 kts | 68° |
| 2026-05-07 02:18 | -6.11455 | 106.65019 | 43 ft | 18 kts | 68° |
| 2026-05-07 02:18 | -6.11405 | 106.65148 | 42 ft | 21 kts | 69° |
| 2026-05-07 02:18 | -6.11344 | 106.65296 | 41 ft | 25 kts | 68° |
| 2026-05-07 02:19 | -6.11277 | 106.65464 | 40 ft | 27 kts | 69° |
| 2026-05-07 02:19 | -6.11204 | 106.65648 | 40 ft | 30 kts | 67° |
| 2026-05-07 02:19 | -6.11135 | 106.65822 | 40 ft | 15 kts | 68° |
| 2026-05-07 02:19 | -6.11101 | 106.65908 | 39 ft | 9 kts | 68° |
| 2026-05-07 02:20 | -6.11079 | 106.65965 | 38 ft | 8 kts | 73° |
| 2026-05-07 02:20 | -6.11109 | 106.65998 | 39 ft | 8 kts | 153° |
| 2026-05-07 02:20 | -6.11173 | 106.66026 | 38 ft | 12 kts | 158° |
| 2026-05-07 02:20 | -6.11242 | 106.66087 | 37 ft | 15 kts | 112° |
| 2026-05-07 02:21 | -6.11258 | 106.66168 | 38 ft | 11 kts | 98° |
| 2026-05-07 02:21 | -6.11281 | 106.66250 | 38 ft | 13 kts | 125° |
| 2026-05-07 02:21 | -6.11369 | 106.66300 | 38 ft | 16 kts | 158° |
| 2026-05-07 02:21 | -6.11482 | 106.66345 | 38 ft | 17 kts | 158° |
| 2026-05-07 02:22 | -6.11577 | 106.66382 | 38 ft | 13 kts | 158° |
| 2026-05-07 02:22 | -6.11638 | 106.66416 | 37 ft | 9 kts | 127° |
| 2026-05-07 02:22 | -6.11637 | 106.66484 | 38 ft | 12 kts | 70° |
| 2026-05-07 02:22 | -6.11602 | 106.66572 | 38 ft | 14 kts | 69° |
| 2026-05-07 02:23 | -6.11567 | 106.66661 | 38 ft | 9 kts | 68° |
| 2026-05-07 02:23 | -6.11545 | 106.66715 | 38 ft | 10 kts | 68° |
| 2026-05-07 02:23 | -6.11527 | 106.66758 | 37 ft | 2 kts | 68° |
| 2026-05-07 02:23 | -6.11526 | 106.66778 | 37 ft | 2 kts | 106° |
| 2026-05-07 02:24 | -6.11543 | 106.66792 | 37 ft | 5 kts | 143° |
| 2026-05-07 02:24 | -6.11581 | 106.66815 | 37 ft | 7 kts | 151° |
| 2026-05-07 02:24 | -6.11601 | 106.66822 | 37 ft | 4 kts | 161° |
| 2026-05-07 02:24 | -6.11617 | 106.66828 | 37 ft | 0 kts | 159° |